Time;durP1;ratioP1;P1;durP2;ratioP2;P2;SDS_P1;SDS_P2;PMS_P1;PMS_P2;Temp;Humidity;BMP_temperature;BMP_pressure;BME280_temperature;BME280_humidity;BME280_pressure;Samples;Min_cycle;Max_cycle;Signal;HPM_P1;HPM_P2
2021/05/08 00:00:22;;;;;;;7.55;3.78;;;;;;;8.33;59.64;99949.16;4378590;32;20158;-91
2021/05/08 00:02:47;;;;;;;6.45;3.92;;;;;;;8.49;59.64;99941.94;4378916;32;20165;-90
2021/05/08 00:05:13;;;;;;;5.50;3.90;;;;;;;8.38;59.65;99946.50;4378972;32;20153;-89
2021/05/08 00:07:38;;;;;;;6.70;3.70;;;;;;;8.42;59.64;99950.75;4378969;32;20106;-90
2021/05/08 00:10:08;;;;;;;6.18;3.87;;;;;;;8.58;59.65;99959.94;4391600;32;20153;-88
2021/05/08 00:12:34;;;;;;;;;;;;;;;8.47;59.65;99954.09;4392005;32;20102;-89
2021/05/08 00:14:59;;;;;;;6.77;4.10;;;;;;;8.45;59.65;99972.28;4391522;32;20694;-90
2021/05/08 00:17:24;;;;;;;5.85;3.67;;;;;;;8.47;59.65;99974.84;4378784;32;20187;-89
2021/05/08 00:19:50;;;;;;;5.22;4.05;;;;;;;8.41;59.64;99964.59;4390894;32;20135;-89
2021/05/08 00:22:15;;;;;;;5.68;4.10;;;;;;;8.43;59.64;99968.88;4378716;32;21809;-90
2021/05/08 00:24:41;;;;;;;6.70;4.62;;;;;;;8.27;59.63;99963.09;4378678;32;20709;-89
2021/05/08 00:27:06;;;;;;;5.22;3.87;;;;;;;8.37;59.64;99970.75;4404336;32;20156;-91
2021/05/08 00:29:31;;;;;;;5.80;4.15;;;;;;;8.23;59.64;99970.97;4378449;32;30319;-91
2021/05/08 00:31:57;;;;;;;8.00;4.55;;;;;;;8.18;59.63;99977.97;4379216;32;20161;-90
2021/05/08 00:34:22;;;;;;;5.97;4.10;;;;;;;8.15;59.63;99986.66;4379713;32;20141;-91
2021/05/08 00:36:47;;;;;;;5.18;3.83;;;;;;;8.08;59.63;99987.66;4391555;32;20420;-90
2021/05/08 00:39:13;;;;;;;7.12;4.47;;;;;;;7.86;59.62;99986.34;4378228;32;30338;-90
2021/05/08 00:41:38;;;;;;;8.00;4.53;;;;;;;7.92;59.62;99992.25;4391124;32;31794;-89
2021/05/08 00:44:04;;;;;;;17.85;5.18;;;;;;;7.78;59.61;99995.97;4378969;32;23948;-90
2021/05/08 00:46:29;;;;;;;6.80;4.40;;;;;;;7.83;59.61;100009.72;4378808;32;20094;-88
2021/05/08 00:48:55;;;;;;;6.40;4.12;;;;;;;7.67;59.60;100007.38;4378777;32;36558;-91
2021/05/08 00:51:21;;;;;;;7.82;4.47;;;;;;;7.73;59.61;100015.91;4380625;32;20177;-92
2021/05/08 00:53:46;;;;;;;7.70;4.50;;;;;;;7.54;59.59;100018.78;4380526;32;21888;-92
2021/05/08 00:56:12;;;;;;;7.22;4.55;;;;;;;7.80;59.61;100012.34;4380195;32;20133;-92
2021/05/08 00:58:37;;;;;;;6.97;4.30;;;;;;;7.73;59.60;100018.50;4380617;32;20123;-91
2021/05/08 01:01:03;;;;;;;6.18;4.35;;;;;;;7.72;59.61;100021.97;4381220;32;20189;-94
2021/05/08 01:03:28;;;;;;;6.78;4.25;;;;;;;7.55;59.60;100028.25;4380840;32;20129;-92
2021/05/08 01:05:54;;;;;;;6.10;4.15;;;;;;;7.59;59.59;100029.09;4380747;32;20144;-92
2021/05/08 01:08:19;;;;;;;6.05;4.47;;;;;;;7.55;59.60;100030.84;4379738;32;26253;-90
2021/05/08 01:10:44;;;;;;;7.90;4.12;;;;;;;7.50;59.59;100034.41;4379458;32;20690;-91
2021/05/08 01:13:10;;;;;;;5.97;4.18;;;;;;;7.43;59.59;100041.41;4378813;32;26693;-91
2021/05/08 01:15:35;;;;;;;7.00;4.32;;;;;;;7.39;59.58;100042.34;4378602;32;20121;-91
2021/05/08 01:18:01;;;;;;;6.45;4.20;;;;;;;7.34;59.59;100052.78;4378722;32;28071;-91
2021/05/08 01:20:26;;;;;;;6.18;4.10;;;;;;;7.44;59.59;100048.31;4379874;32;20141;-90
2021/05/08 01:22:52;;;;;;;5.28;4.05;;;;;;;7.44;59.59;100050.91;4379070;32;20148;-90
2021/05/08 01:25:22;;;;;;;7.22;3.62;;;;;;;7.23;59.57;100057.22;4379888;32;20121;-91
2021/05/08 01:27:57;;;;;;;;;;;;;;;7.44;59.59;100053.47;4380191;32;20136;-92
2021/05/08 01:30:25;;;;;;;4.62;3.55;;;;;;;7.39;59.58;100053.56;4392722;32;20046;-92
2021/05/08 01:32:50;;;;;;;5.40;3.50;;;;;;;7.28;59.58;100057.16;4380194;32;20080;-92
2021/05/08 01:35:16;;;;;;;6.75;3.85;;;;;;;7.33;59.58;100052.75;4379390;32;20126;-92
2021/05/08 01:37:41;;;;;;;7.07;3.50;;;;;;;7.37;59.58;100050.13;4380612;32;20444;-91
2021/05/08 01:40:11;;;;;;;6.43;3.90;;;;;;;7.35;59.58;100054.47;4380719;32;20125;-93
2021/05/08 01:42:36;;;;;;;7.70;3.95;;;;;;;7.28;59.58;100050.25;4381159;32;20103;-93
2021/05/08 01:45:21;;;;;;;4.12;3.22;;;;;;;7.27;59.58;100063.22;4380836;32;20095;-93
2021/05/08 01:47:46;;;;;;;6.97;4.10;;;;;;;7.31;59.58;100075.25;4380664;32;20099;-93
2021/05/08 01:50:14;;;;;;;5.97;3.80;;;;;;;7.24;59.58;100077.06;4380809;32;20167;-92
2021/05/08 01:52:39;;;;;;;7.62;3.45;;;;;;;7.33;59.58;100071.78;4380766;32;20113;-92
2021/05/08 01:55:07;;;;;;;5.35;3.65;;;;;;;7.49;59.59;100069.81;4380500;32;20098;-90
2021/05/08 01:57:43;;;;;;;5.32;3.35;;;;;;;7.29;59.58;100066.63;4380518;32;20704;-93
2021/05/08 02:00:32;;;;;;;4.00;3.33;;;;;;;7.40;59.59;100062.19;4381236;32;20110;-92
2021/05/08 02:02:58;;;;;;;6.43;3.28;;;;;;;7.26;59.58;100074.44;4393803;32;20094;-93
2021/05/08 02:05:26;;;;;;;6.85;3.65;;;;;;;7.32;59.58;100069.19;4380965;32;20512;-92
2021/05/08 02:07:52;;;;;;;6.87;3.92;;;;;;;7.39;59.58;100065.66;4379983;32;20676;-91
2021/05/08 02:10:17;;;;;;;4.90;3.85;;;;;;;7.31;59.58;100077.81;4392976;32;20119;-92
2021/05/08 02:12:43;;;;;;;4.70;3.62;;;;;;;7.27;59.58;100083.94;4380308;32;20200;-94
2021/05/08 02:15:13;;;;;;;5.18;3.37;;;;;;;7.18;59.58;100084.91;4380538;32;20141;-92
2021/05/08 02:17:38;;;;;;;6.68;3.80;;;;;;;7.22;59.58;100076.22;4380340;32;20106;-91
2021/05/08 02:20:08;;;;;;;5.22;3.58;;;;;;;7.21;59.57;100087.47;4380076;32;20129;-91
2021/05/08 02:22:33;;;;;;;4.95;3.40;;;;;;;7.23;59.57;100079.69;4380233;32;20794;-91
2021/05/08 02:24:59;;;;;;;5.78;3.60;;;;;;;7.24;59.57;100086.56;4379044;32;20129;-89
2021/05/08 02:27:24;;;;;;;10.35;3.75;;;;;;;7.09;59.57;100088.47;4379153;32;20569;-93
2021/05/08 02:29:49;;;;;;;7.35;3.45;;;;;;;7.17;59.57;100088.37;4379107;32;20154;-90
2021/05/08 02:32:15;;;;;;;6.35;3.70;;;;;;;7.16;59.57;100081.50;4379562;32;20134;-91
2021/05/08 02:34:40;;;;;;;6.45;4.03;;;;;;;7.07;59.56;100079.84;4379144;32;20156;-91
2021/05/08 02:37:06;;;;;;;5.40;3.50;;;;;;;7.00;59.56;100080.81;4379114;32;20137;-92
2021/05/08 02:39:31;;;;;;;5.95;3.92;;;;;;;7.03;59.57;100078.19;4379753;32;20165;-91
2021/05/08 02:41:56;;;;;;;6.47;3.70;;;;;;;7.02;59.57;100081.66;4378915;32;20154;-90
2021/05/08 02:44:22;;;;;;;5.15;3.33;;;;;;;6.85;59.56;100064.59;4380438;32;20106;-95
2021/05/08 02:46:47;;;;;;;6.45;3.58;;;;;;;6.86;59.55;100076.66;4380268;32;20218;-93
2021/05/08 02:49:13;;;;;;;6.47;3.47;;;;;;;6.91;59.56;100085.25;4380670;32;20103;-95
2021/05/08 02:51:38;;;;;;;5.15;3.25;;;;;;;6.74;59.55;100088.88;4380832;32;20106;-93
2021/05/08 02:54:04;;;;;;;5.47;4.50;;;;;;;6.83;59.56;100092.22;4379956;32;20124;-94
2021/05/08 02:56:29;;;;;;;6.50;3.62;;;;;;;6.83;59.56;100095.69;4380086;32;20165;-94
2021/05/08 02:58:54;;;;;;;7.57;3.95;;;;;;;6.78;59.55;100092.28;4380185;32;20115;-92
2021/05/08 03:01:20;;;;;;;5.45;3.65;;;;;;;6.72;59.54;100094.94;4380364;32;20111;-94
2021/05/08 03:03:45;;;;;;;5.87;3.58;;;;;;;6.69;59.54;100097.56;4380143;32;20126;-93
2021/05/08 03:06:10;;;;;;;5.57;3.78;;;;;;;6.78;59.55;100105.22;4379587;32;20162;-93
2021/05/08 03:08:36;;;;;;;6.10;3.75;;;;;;;6.69;59.55;100105.34;4379820;32;24310;-94
2021/05/08 03:11:01;;;;;;;6.60;3.30;;;;;;;6.69;59.54;100108.78;4380418;32;20106;-93
2021/05/08 03:13:27;;;;;;;7.07;4.20;;;;;;;6.81;59.56;100110.38;4380461;32;20087;-93
2021/05/08 03:15:52;;;;;;;5.87;3.92;;;;;;;6.81;59.55;100112.94;4380178;32;20125;-93
2021/05/08 03:18:18;;;;;;;7.05;4.30;;;;;;;6.81;59.56;100114.69;4379985;32;20126;-95
2021/05/08 03:20:43;;;;;;;7.35;4.03;;;;;;;6.63;59.54;100110.59;4380894;32;20138;-95
2021/05/08 03:23:08;;;;;;;4.80;3.37;;;;;;;6.55;59.54;100105.47;4383187;32;20393;-95
2021/05/08 03:25:34;;;;;;;5.75;3.97;;;;;;;6.61;59.54;100109.72;4383053;32;20095;-94
2021/05/08 03:27:59;;;;;;;7.47;4.07;;;;;;;6.63;59.54;100113.16;4382905;32;20149;-93
2021/05/08 03:30:25;;;;;;;6.72;3.53;;;;;;;6.54;59.54;100123.59;4382266;32;22222;-94
2021/05/08 03:32:50;;;;;;;5.70;4.05;;;;;;;6.65;59.54;100132.13;4382574;32;20105;-93
2021/05/08 03:35:16;;;;;;;6.72;3.70;;;;;;;6.71;59.55;100125.16;4382029;32;20145;-93
2021/05/08 03:37:41;;;;;;;7.18;4.30;;;;;;;6.69;59.55;100126.88;4381954;32;20098;-93
2021/05/08 03:40:07;;;;;;;5.85;3.83;;;;;;;6.75;59.55;100126.81;4394575;32;21778;-93
2021/05/08 03:42:32;;;;;;;7.25;4.22;;;;;;;6.74;59.55;100127.69;4382183;32;20102;-92
2021/05/08 03:44:58;;;;;;;6.50;4.03;;;;;;;6.56;59.53;100138.22;4381917;32;20556;-93
2021/05/08 03:47:23;;;;;;;6.22;4.30;;;;;;;6.47;59.53;100131.41;4382191;32;20746;-94
2021/05/08 03:49:49;;;;;;;8.13;4.62;;;;;;;6.73;59.56;100131.16;4381468;32;33004;-95
2021/05/08 03:52:14;;;;;;;7.37;4.12;;;;;;;6.77;59.55;100134.56;4382144;32;20106;-93
2021/05/08 03:54:39;;;;;;;6.00;3.97;;;;;;;6.92;59.56;100129.22;4381861;32;20110;-93
2021/05/08 03:57:05;;;;;;;8.98;4.95;;;;;;;7.07;59.56;100139.41;4380876;32;29258;-94
2021/05/08 03:59:31;;;;;;;7.37;4.10;;;;;;;7.20;59.58;100150.47;4381261;32;20832;-94
2021/05/08 04:01:56;;;;;;;6.32;3.92;;;;;;;7.17;59.57;100144.47;4381366;32;20097;-91
2021/05/08 04:04:22;;;;;;;6.65;4.40;;;;;;;7.06;59.56;100153.22;4378772;32;20761;-89
2021/05/08 04:06:47;;;;;;;6.95;3.90;;;;;;;7.07;59.56;100157.50;4378387;32;23984;-90
2021/05/08 04:09:12;;;;;;;6.85;4.18;;;;;;;7.16;59.57;100163.47;4379701;32;20245;-92
2021/05/08 04:11:38;;;;;;;6.78;4.45;;;;;;;7.21;59.57;100164.28;4380435;32;20474;-89
2021/05/08 04:14:04;;;;;;;11.05;4.15;;;;;;;7.37;59.59;100161.50;4392164;32;20272;-93
2021/05/08 04:16:31;;;;;;;6.65;4.60;;;;;;;7.44;59.59;100166.59;4379702;32;20148;-91
2021/05/08 04:18:57;;;;;;;6.70;4.25;;;;;;;7.43;59.59;100170.91;4380107;32;20089;-94
2021/05/08 04:21:23;;;;;;;4.90;4.07;;;;;;;7.57;59.60;100175.91;4381567;32;20125;-94
2021/05/08 04:23:48;;;;;;;8.30;4.60;;;;;;;7.72;59.61;100175.72;4393429;32;20118;-92
2021/05/08 04:26:14;;;;;;;7.70;3.87;;;;;;;8.01;59.62;100183.06;4380079;32;26612;-90
2021/05/08 04:28:39;;;;;;;7.40;4.47;;;;;;;7.98;59.61;100183.97;4378788;32;20558;-88
2021/05/08 04:31:04;;;;;;;6.78;4.12;;;;;;;8.12;59.63;100177.75;4378689;32;20137;-88
2021/05/08 04:33:30;;;;;;;6.75;4.30;;;;;;;8.26;59.63;100179.22;4379324;32;23172;-90
2021/05/08 04:35:55;;;;;;;6.10;3.67;;;;;;;8.43;59.64;100189.37;4379293;32;21061;-90
2021/05/08 04:38:21;;;;;;;7.72;3.75;;;;;;;8.74;59.66;100186.25;4378664;32;20133;-90
2021/05/08 04:40:46;;;;;;;7.57;4.78;;;;;;;8.50;59.64;100185.78;4379203;32;20152;-91
2021/05/08 04:43:11;;;;;;;6.12;4.28;;;;;;;8.82;59.67;100185.25;4379180;32;20508;-91
2021/05/08 04:45:37;;;;;;;7.28;4.22;;;;;;;8.83;59.67;100188.69;4391782;32;20138;-89
2021/05/08 04:48:02;;;;;;;6.62;4.25;;;;;;;8.87;59.66;100201.59;4378964;32;20086;-89
2021/05/08 04:50:28;;;;;;;6.35;3.78;;;;;;;8.89;59.68;100197.22;4378985;32;20106;-91
2021/05/08 04:52:53;;;;;;;6.55;3.70;;;;;;;9.01;59.68;100203.09;4392152;32;20129;-90
2021/05/08 04:55:20;;;;;;;6.90;4.35;;;;;;;8.85;59.67;100205.97;4379224;32;20110;-89
2021/05/08 04:57:45;;;;;;;6.35;4.07;;;;;;;8.86;59.66;100207.66;4378841;32;20054;-90
2021/05/08 05:00:12;;;;;;;8.00;4.97;;;;;;;8.91;59.67;100204.97;4378290;32;21081;-90
2021/05/08 05:02:37;;;;;;;6.22;4.28;;;;;;;8.83;59.67;100212.06;4391390;32;20154;-88
2021/05/08 05:05:03;;;;;;;5.45;4.12;;;;;;;9.03;59.67;100214.31;4378369;32;20145;-90
2021/05/08 05:07:28;;;;;;;4.95;3.85;;;;;;;9.13;59.69;100210.63;4391566;32;20098;-91
2021/05/08 05:09:53;;;;;;;7.87;3.83;;;;;;;9.13;59.69;100213.25;4378776;32;20217;-89
2021/05/08 05:12:19;;;;;;;6.05;3.70;;;;;;;9.21;59.69;100211.34;4378619;32;20150;-90
2021/05/08 05:14:44;;;;;;;7.65;4.62;;;;;;;9.42;59.70;100223.91;4392416;32;20110;-89
2021/05/08 05:17:10;;;;;;;6.60;4.20;;;;;;;9.44;59.70;100222.16;4378215;32;20094;-90
2021/05/08 05:19:35;;;;;;;5.93;3.60;;;;;;;9.42;59.71;100221.31;4377980;32;33134;-89
2021/05/08 05:22:01;;;;;;;6.35;3.72;;;;;;;9.44;59.70;100227.34;4391134;32;20106;-90
2021/05/08 05:24:26;;;;;;;6.10;4.20;;;;;;;9.52;59.70;100230.66;4391243;32;20110;-90
2021/05/08 05:26:52;;;;;;;7.37;4.35;;;;;;;9.72;59.71;100239.81;4378357;32;20114;-92
2021/05/08 05:29:17;;;;;;;6.93;4.25;;;;;;;9.74;59.72;100232.81;4378366;32;21414;-88
2021/05/08 05:31:42;;;;;;;6.25;3.90;;;;;;;9.81;59.73;100237.00;4375108;32;93252;-89
2021/05/08 05:34:08;;;;;;;7.10;4.07;;;;;;;9.87;59.73;100242.06;4380760;32;28027;-90
2021/05/08 05:36:33;;;;;;;5.28;3.92;;;;;;;9.82;59.72;100246.50;4377644;32;33775;-90
2021/05/08 05:38:59;;;;;;;6.00;4.30;;;;;;;9.62;59.71;100254.72;4377569;32;20120;-89
2021/05/08 05:41:25;;;;;;;5.40;4.10;;;;;;;9.83;59.72;100266.44;4408304;32;20118;-88
2021/05/08 05:43:50;;;;;;;6.57;4.30;;;;;;;9.79;59.71;100259.56;4417742;32;20137;-92
2021/05/08 05:46:16;;;;;;;7.55;4.50;;;;;;;10.17;59.75;100263.94;4397288;32;20153;-91
2021/05/08 05:48:41;;;;;;;6.25;4.32;;;;;;;10.13;59.74;100262.31;4379921;32;20165;-92
2021/05/08 05:51:08;;;;;;;5.72;4.25;;;;;;;10.05;59.73;100267.69;4378877;32;20183;-93
2021/05/08 05:53:33;;;;;;;6.97;4.40;;;;;;;10.04;59.73;100268.56;4391947;32;20158;-92
2021/05/08 05:55:59;;;;;;;7.93;4.85;;;;;;;10.02;59.72;100266.91;4378705;32;20438;-91
2021/05/08 05:58:24;;;;;;;6.22;4.75;;;;;;;10.01;59.73;100273.84;4377907;32;20140;-88
2021/05/08 06:00:50;;;;;;;6.10;4.78;;;;;;;10.00;59.73;100276.47;4377797;32;20114;-89
2021/05/08 06:03:15;;;;;;;5.60;3.92;;;;;;;10.25;59.75;100269.03;4377339;32;20150;-90
2021/05/08 06:05:40;;;;;;;7.45;5.03;;;;;;;10.36;59.75;100272.22;4377578;32;20390;-87
2021/05/08 06:08:10;;;;;;;6.47;4.40;;;;;;;10.72;59.77;100271.37;4401994;32;31077;-89
2021/05/08 06:10:35;;;;;;;8.17;4.57;;;;;;;10.81;59.78;100274.66;4377381;32;20119;-88
2021/05/08 06:13:00;;;;;;;8.00;4.28;;;;;;;10.72;59.77;100273.12;4415588;32;20105;-90
2021/05/08 06:15:26;;;;;;;6.35;4.12;;;;;;;10.79;59.78;100271.22;4405193;32;20094;-89
2021/05/08 06:17:51;;;;;;;6.53;4.65;;;;;;;10.67;59.76;100281.06;4394136;32;21794;-93
2021/05/08 06:20:17;;;;;;;6.62;4.25;;;;;;;10.80;59.77;100283.34;4395204;32;20410;-93
2021/05/08 06:22:42;;;;;;;6.72;4.53;;;;;;;10.95;59.79;100278.63;4394457;32;21917;-92
2021/05/08 06:25:08;;;;;;;5.68;4.10;;;;;;;11.34;59.80;100273.25;4395030;32;20110;-92
2021/05/08 06:27:33;;;;;;;5.85;3.92;;;;;;;11.50;59.81;100276.31;4394617;32;20123;-92
2021/05/08 06:29:59;;;;;;;8.07;4.70;;;;;;;11.60;59.83;100276.03;4392914;32;20125;-91
2021/05/08 06:32:24;;;;;;;8.23;4.93;;;;;;;11.64;59.82;100276.81;4392911;32;20451;-93
2021/05/08 06:34:49;;;;;;;6.90;5.28;;;;;;;11.77;59.83;100283.38;4393305;32;20156;-92
2021/05/08 06:37:15;;;;;;;7.07;4.68;;;;;;;12.02;59.84;100275.72;4418783;32;20119;-92
2021/05/08 06:39:41;;;;;;;7.53;4.78;;;;;;;12.06;59.84;100274.72;4393584;32;20569;-92
2021/05/08 06:42:06;;;;;;;5.78;4.30;;;;;;;12.11;59.84;100278.06;4393582;32;20611;-91
2021/05/08 06:44:32;;;;;;;6.97;4.72;;;;;;;12.19;59.85;100278.69;4393451;32;20101;-93
2021/05/08 06:46:57;;;;;;;7.15;3.97;;;;;;;12.10;59.85;100272.91;4405652;32;26398;-94
2021/05/08 06:49:23;;;;;;;6.93;4.70;;;;;;;12.29;59.86;100269.66;4393424;32;20126;-94
2021/05/08 06:51:48;;;;;;;5.53;3.97;;;;;;;12.34;59.85;100276.53;4393270;32;20114;-92
2021/05/08 06:54:14;;;;;;;5.15;4.00;;;;;;;12.31;59.86;100271.41;4393379;32;20142;-92
2021/05/08 06:56:39;;;;;;;5.15;3.90;;;;;;;12.51;59.87;100264.63;4394864;32;20120;-92
2021/05/08 06:59:05;;;;;;;5.12;3.70;;;;;;;12.40;59.86;100274.56;4395230;32;20197;-94
2021/05/08 07:01:30;;;;;;;4.22;3.67;;;;;;;12.27;59.85;100270.63;4408185;32;20386;-93
2021/05/08 07:03:56;;;;;;;5.70;4.28;;;;;;;12.45;59.86;100264.84;4394713;32;20594;-93
2021/05/08 07:06:23;;;;;;;5.50;4.05;;;;;;;12.64;59.87;100266.88;4395052;32;20150;-92
2021/05/08 07:08:48;;;;;;;6.03;3.70;;;;;;;12.47;59.87;100270.84;4395349;32;20118;-92
2021/05/08 07:11:13;;;;;;;5.37;3.78;;;;;;;12.65;59.87;100276.41;4394423;32;26397;-92
2021/05/08 07:13:39;;;;;;;6.15;3.80;;;;;;;12.77;59.88;100269.00;4394244;32;20121;-93
2021/05/08 07:16:04;;;;;;;5.87;3.83;;;;;;;12.50;59.88;100273.38;4394149;32;29876;-93
2021/05/08 07:18:30;;;;;;;6.12;3.70;;;;;;;12.57;59.86;100271.44;4394463;32;20111;-92
2021/05/08 07:20:55;;;;;;;5.45;3.78;;;;;;;12.46;59.87;100281.34;4394016;32;27729;-91
2021/05/08 07:23:21;;;;;;;5.95;4.12;;;;;;;12.33;59.86;100283.50;4407094;32;20498;-91
2021/05/08 07:25:46;;;;;;;6.47;4.37;;;;;;;12.37;59.87;100290.34;4407106;32;20090;-94
2021/05/08 07:28:15;;;;;;;9.25;4.57;;;;;;;12.38;59.86;100278.13;4394599;32;20170;-93
2021/05/08 07:30:41;;;;;;;6.60;4.47;;;;;;;12.45;59.86;100284.87;4420316;32;20132;-92
2021/05/08 07:33:07;;;;;;;5.50;4.40;;;;;;;12.64;59.88;100279.94;4394867;32;20089;-92
2021/05/08 07:35:33;;;;;;;5.20;4.15;;;;;;;12.87;59.89;100286.12;4394801;32;20120;-93
2021/05/08 07:37:58;;;;;;;6.30;4.90;;;;;;;12.99;59.90;100289.22;4394642;32;20140;-91
2021/05/08 07:40:23;;;;;;;5.90;4.30;;;;;;;12.99;59.90;100295.28;4394480;32;20193;-90
2021/05/08 07:42:49;;;;;;;6.82;4.40;;;;;;;13.11;59.90;100291.44;4407648;32;20118;-92
2021/05/08 07:45:15;;;;;;;8.35;4.00;;;;;;;13.08;59.90;100292.41;4394451;32;20147;-92
2021/05/08 07:47:40;;;;;;;5.50;3.55;;;;;;;13.16;59.90;100290.38;4394321;32;20153;-94
2021/05/08 07:50:07;;;;;;;5.62;4.32;;;;;;;13.21;59.91;100295.47;4394524;32;20583;-93
2021/05/08 07:52:32;;;;;;;6.07;3.72;;;;;;;13.20;59.91;100291.13;4394347;32;20178;-92
2021/05/08 07:54:57;;;;;;;4.78;3.00;;;;;;;13.32;59.91;100300.34;4406884;32;21910;-92
2021/05/08 07:57:23;;;;;;;5.72;3.55;;;;;;;13.20;59.91;100301.59;4406556;32;20161;-93
2021/05/08 07:59:48;;;;;;;4.53;3.50;;;;;;;13.06;59.90;100311.66;4393853;32;20133;-92
2021/05/08 08:02:14;;;;;;;5.00;3.42;;;;;;;13.11;59.90;100307.12;4406201;32;29122;-92
2021/05/08 08:04:40;;;;;;;5.50;3.40;;;;;;;13.18;59.90;100314.72;4407509;32;20102;-92
2021/05/08 08:07:05;;;;;;;4.75;3.40;;;;;;;13.39;59.92;100307.06;4393845;32;20114;-90
2021/05/08 08:09:31;;;;;;;4.28;3.20;;;;;;;13.41;59.91;100307.84;4407953;32;20167;-92
2021/05/08 08:11:56;;;;;;;5.93;3.10;;;;;;;13.31;59.91;100309.09;4419725;32;20543;-92
2021/05/08 08:14:22;;;;;;;4.87;3.15;;;;;;;13.44;59.92;100320.81;4394203;32;20130;-92
2021/05/08 08:16:47;;;;;;;12.70;3.37;;;;;;;13.68;59.93;100319.97;4394318;32;20598;-92
2021/05/08 08:19:12;;;;;;;4.68;2.85;;;;;;;13.78;59.94;100317.88;4394224;32;20179;-92
2021/05/08 08:21:38;;;;;;;5.25;3.00;;;;;;;14.07;59.95;100322.06;4406820;32;20114;-92
2021/05/08 08:24:04;;;;;;;7.37;3.65;;;;;;;14.25;59.96;100324.00;4394990;32;20157;-93
2021/05/08 08:26:29;;;;;;;4.60;2.80;;;;;;;14.38;59.97;100317.34;4394115;32;20118;-92
2021/05/08 08:28:54;;;;;;;5.87;2.60;;;;;;;14.53;59.98;100336.91;4406802;32;20156;-92
2021/05/08 08:31:20;;;;;;;5.65;2.85;;;;;;;14.57;59.98;100320.16;4419243;32;20130;-91
2021/05/08 08:33:45;;;;;;;3.40;2.30;;;;;;;14.47;59.97;100326.66;4406101;32;23580;-91
2021/05/08 08:36:11;;;;;;;3.45;2.62;;;;;;;14.44;59.97;100332.03;4393675;32;20398;-93
2021/05/08 08:38:36;;;;;;;4.85;3.30;;;;;;;14.38;59.97;100322.59;4406200;32;22294;-93
2021/05/08 08:41:01;;;;;;;3.95;2.97;;;;;;;14.40;59.97;100335.63;4393851;32;20167;-93
2021/05/08 08:43:27;;;;;;;5.68;3.40;;;;;;;14.39;59.97;100332.16;4393994;32;20098;-92
2021/05/08 08:45:52;;;;;;;5.82;3.33;;;;;;;14.61;59.99;100323.50;4406905;32;20229;-93
2021/05/08 08:48:19;;;;;;;5.12;3.40;;;;;;;14.89;60.00;100324.09;4393538;32;27180;-93
2021/05/08 08:50:44;;;;;;;4.47;2.97;;;;;;;15.11;60.02;100323.22;4393980;32;20098;-91
2021/05/08 08:53:11;;;;;;;3.17;2.50;;;;;;;15.09;60.01;100311.94;4418940;32;20086;-90
2021/05/08 08:55:36;;;;;;;4.28;3.10;;;;;;;15.26;60.02;100323.44;4406514;32;20125;-92
2021/05/08 08:58:05;;;;;;;4.85;2.60;;;;;;;15.41;60.03;100321.09;4406645;32;20165;-92
2021/05/08 09:00:31;;;;;;;3.13;2.20;;;;;;;15.57;60.04;100328.22;4394576;32;20090;-91
2021/05/08 09:02:56;;;;;;;4.25;2.58;;;;;;;15.69;60.04;100328.66;4393766;32;20089;-92
2021/05/08 09:05:23;;;;;;;3.30;2.10;;;;;;;15.53;60.03;100320.56;4405919;32;25820;-92
2021/05/08 09:07:50;;;;;;;3.55;2.37;;;;;;;15.63;60.05;100322.75;4406625;32;20167;-91
2021/05/08 09:10:27;;;;;;;3.15;2.42;;;;;;;15.39;60.02;100317.69;4406664;32;20090;-92
2021/05/08 09:12:53;;;;;;;3.37;2.62;;;;;;;15.39;60.02;100328.19;4406589;32;20120;-93
2021/05/08 09:15:38;;;;;;;3.83;3.12;;;;;;;15.35;60.03;100330.06;4393970;32;20451;-91
2021/05/08 09:18:04;;;;;;;5.45;3.35;;;;;;;15.54;60.03;100341.47;4405543;32;20482;-91
2021/05/08 09:20:59;;;;;;;4.93;3.08;;;;;;;15.59;60.04;100336.06;4406478;32;20090;-93
2021/05/08 09:23:29;;;;;;;3.95;2.37;;;;;;;15.74;60.05;100335.41;4396506;32;20164;-92
2021/05/08 09:25:56;;;;;;;3.00;2.35;;;;;;;15.87;60.06;100333.09;4393702;32;20641;-91
2021/05/08 09:28:21;;;;;;;2.92;1.77;;;;;;;15.93;60.05;100340.69;4393726;32;20110;-92
2021/05/08 09:30:47;;;;;;;3.72;2.30;;;;;;;15.82;60.06;100332.44;4393376;32;20133;-91
2021/05/08 09:33:18;;;;;;;4.12;2.53;;;;;;;15.59;60.04;100333.44;4405971;32;20082;-92
2021/05/08 09:35:44;;;;;;;11.20;4.57;;;;;;;15.56;60.04;100334.38;4393849;32;20110;-92
2021/05/08 09:38:16;;;;;;;4.05;2.53;;;;;;;15.64;60.05;100334.97;4393624;32;20106;-93
2021/05/08 09:40:48;;;;;;;6.50;4.25;;;;;;;15.87;60.06;100326.06;4393693;32;20168;-91
2021/05/08 09:43:18;;;;;;;6.45;4.30;;;;;;;15.98;60.06;100327.34;4406242;32;20074;-93
2021/05/08 09:45:45;;;;;;;6.35;3.60;;;;;;;16.18;60.07;100332.56;4393829;32;20132;-93
2021/05/08 09:48:43;;;;;;;3.78;2.47;;;;;;;16.34;60.09;100327.47;4419617;32;20136;-92
2021/05/08 09:51:26;;;;;;;2.97;2.47;;;;;;;16.34;60.08;100320.44;4380998;32;20094;-93
2021/05/08 09:54:15;;;;;;;3.47;2.08;;;;;;;16.56;60.10;100322.88;4393696;32;20110;-92
2021/05/08 09:56:43;;;;;;;2.53;1.95;;;;;;;16.72;60.11;100316.00;4406139;32;20105;-92
2021/05/08 09:59:35;;;;;;;3.60;2.30;;;;;;;16.89;60.11;100317.81;4405780;32;20113;-92
2021/05/08 10:02:04;;;;;;;3.33;1.92;;;;;;;17.05;60.12;100307.41;4406091;32;20094;-92
2021/05/08 10:04:34;;;;;;;4.60;2.08;;;;;;;17.10;60.12;100318.53;4406067;32;20120;-93
2021/05/08 10:07:06;;;;;;;11.18;5.95;;;;;;;16.89;60.11;100312.56;4405998;32;20137;-94
2021/05/08 10:09:31;;;;;;;2.78;1.85;;;;;;;16.65;60.10;100309.31;4405870;32;20101;-93
2021/05/08 10:12:02;;;;;;;4.45;2.20;;;;;;;16.74;60.10;100308.91;4393649;32;20425;-92
2021/05/08 10:14:27;;;;;;;2.17;1.33;;;;;;;16.83;60.10;100308.47;4405945;32;20106;-91
2021/05/08 10:16:53;;;;;;;5.15;1.95;;;;;;;16.91;60.11;100296.72;4393116;32;20396;-92
2021/05/08 10:19:18;;;;;;;2.15;1.42;;;;;;;16.78;60.11;100297.28;4406120;32;20141;-92
2021/05/08 10:21:43;;;;;;;1.70;1.10;;;;;;;16.88;60.11;100293.31;4393124;32;20112;-93
2021/05/08 10:24:09;;;;;;;1.52;1.20;;;;;;;17.13;60.13;100294.72;4393266;32;20134;-91
2021/05/08 10:26:35;;;;;;;2.60;1.92;;;;;;;17.03;60.12;100288.19;4393132;32;20101;-93
2021/05/08 10:29:00;;;;;;;4.53;2.17;;;;;;;17.05;60.12;100294.25;4393998;32;25155;-92
2021/05/08 10:31:25;;;;;;;6.50;3.53;;;;;;;17.13;60.12;100289.47;4410783;32;20110;-92
2021/05/08 10:33:51;;;;;;;2.95;1.90;;;;;;;16.87;60.12;100288.97;4397910;32;22747;-93
2021/05/08 10:36:45;;;;;;;2.45;1.77;;;;;;;16.96;60.12;100287.66;4397628;32;29167;-93
2021/05/08 10:39:10;;;;;;;2.85;1.65;;;;;;;17.08;60.13;100284.44;4410584;32;20110;-94
2021/05/08 10:41:54;;;;;;;2.87;1.60;;;;;;;17.28;60.13;100277.31;4398020;32;20136;-91
2021/05/08 10:44:42;;;;;;;2.87;1.80;;;;;;;17.19;60.13;100279.47;4398010;32;20167;-91
2021/05/08 10:47:07;;;;;;;2.28;1.50;;;;;;;17.26;60.14;100276.50;4423063;32;20122;-91
2021/05/08 10:49:32;;;;;;;3.05;1.62;;;;;;;17.20;60.13;100282.94;4410500;32;20169;-92
2021/05/08 10:51:59;;;;;;;2.92;2.15;;;;;;;17.02;60.12;100278.59;4397663;32;20491;-92
2021/05/08 10:54:43;;;;;;;2.50;1.67;;;;;;;17.19;60.12;100278.63;4398120;32;20169;-93
2021/05/08 10:57:26;;;;;;;2.17;1.67;;;;;;;17.55;60.15;100269.78;4411329;32;20066;-92
2021/05/08 11:00:09;;;;;;;3.40;1.70;;;;;;;17.50;60.15;100273.47;4423401;32;20549;-92
2021/05/08 11:02:41;;;;;;;3.72;2.12;;;;;;;17.54;60.16;100270.69;4411488;32;20101;-91
2021/05/08 11:05:38;;;;;;;2.45;1.85;;;;;;;17.34;60.14;100291.00;4410094;32;20102;-92
2021/05/08 11:08:43;;;;;;;2.53;2.10;;;;;;;17.46;60.14;100278.97;4404236;32;20094;-93
2021/05/08 11:11:10;;;;;;;1.85;1.52;;;;;;;17.12;60.12;100267.56;4423225;32;20113;-91
2021/05/08 11:13:42;;;;;;;2.20;1.40;;;;;;;17.33;60.14;100268.25;4397571;32;20086;-92
2021/05/08 11:16:08;;;;;;;4.22;2.45;;;;;;;17.56;60.15;100266.19;4410168;32;20086;-93
2021/05/08 11:18:38;;;;;;;2.97;2.12;;;;;;;17.93;60.18;100260.69;4410147;32;20427;-93
2021/05/08 11:21:04;;;;;;;;;;;;;;;18.08;60.18;100262.50;4422955;32;20513;-92
2021/05/08 11:24:07;;;;;;;3.33;1.98;;;;;;;18.12;60.18;100259.69;4397638;32;20001;-93
2021/05/08 11:26:34;;;;;;;3.37;2.12;;;;;;;17.84;60.18;100268.25;4365872;32;20132;-92
2021/05/08 11:29:03;;;;;;;3.85;1.50;;;;;;;17.94;60.18;100256.28;4401778;32;20125;-93